No particular awareness of the weather is required.    There are no Weather-warnings


Meteo18 Weather Cam more information Meteo18 Weather Cam


Thunder radar more information blitzortung!


Rain radar more information rain snow radar


Visit our other weather sites:

Template documentation
and downloads

And another site



Weather Underground History page Text

Daily Summary for January 9, 2018 Units:  English    Metric   Both
« Previous Day
Next Day »
Daily Weekly Monthly Yearly Custom
  High: Low: Average:
Temperature: TemperatureC °F 4.3 °F 5.9 °F
Dew Point: DewpointC °F 3.6 °F 5.2 °F
Humidity: Humidity % 90 % 95 %
Wind Speed: WindSpeedKMH mph 0.0 mph 3.4 mph
Wind Gust: WindSpeedGustKMH mph - -
Wind:- - SSW
Pressure: PressurehPa in 1009.4 in -
Precipitation: 3.3 in    
Historical Graphs
 
 
Tabular Data for January 9, 2018
Time Temperature Dew Point Pressure Wind Wind Speed Wind Gust Humidity Rainfall Rate (Hourly)
TemperatureC °F DewpointC °F PressurehPa in Calm     Humidity % HourlyPrecipMM in
00:04 4.8 °F 3.9 °F 1011.4 in WNW 1.4 mph 1.6 mph 94 % 0.0 in
00:16 4.8 °F 4.1 °F 1011.4 in Calm   1.6 mph 95 % 0.0 in
00:24 4.8 °F 4.1 °F 1011.7 in Calm     95 % 0.0 in
00:26 4.8 °F 3.9 °F 1011.7 in Calm     94 % 0.0 in
00:34 4.7 °F 4.0 °F 1011.7 in Calm     95 % 0.0 in
00:38 4.7 °F 4.0 °F 1012.1 in Calm     95 % 0.0 in
00:46 4.7 °F 4.0 °F 1011.7 in Calm   1.6 mph 95 % 0.0 in
00:50 4.7 °F 4.0 °F 1011.7 in Calm     95 % 0.0 in
00:52 4.7 °F 4.0 °F 1011.7 in Calm     95 % 0.0 in
00:58 4.7 °F 4.0 °F 1011.7 in Calm     95 % 0.0 in
01:09 4.7 °F 4.0 °F 1011.4 in Calm     95 % 0.0 in
01:10 4.6 °F 3.9 °F 1011.4 in Calm     95 % 0.0 in
01:16 4.6 °F 3.9 °F 1011.1 in WNW 1.4 mph 3.2 mph 95 % 0.0 in
01:20 4.4 °F 3.7 °F 1011.1 in Calm   1.6 mph 95 % 0.0 in
01:22 4.4 °F 3.7 °F 1011.1 in Calm     95 % 0.0 in
01:30 4.4 °F 3.7 °F 1010.7 in WNW 1.4 mph 1.6 mph 95 % 0.0 in
01:34 4.3 °F 3.6 °F 1010.7 in Calm   1.6 mph 95 % 0.0 in
01:36 4.3 °F 3.6 °F 1010.7 in Calm   1.6 mph 95 % 0.0 in
01:40 4.3 °F 3.7 °F 1011.1 in Calm   1.6 mph 96 % 0.0 in
01:44 4.4 °F 3.8 °F 1011.1 in Calm   1.6 mph 96 % 0.0 in
01:46 4.5 °F 3.9 °F 1011.1 in Calm   1.6 mph 96 % 0.0 in
01:50 4.5 °F 3.9 °F 1011.4 in ENE 4.7 mph 4.8 mph 96 % 0.0 in
01:52 4.5 °F 3.9 °F 1011.7 in ENE 6.4 mph 6.4 mph 96 % 0.0 in
01:54 4.6 °F 4.0 °F 1011.7 in ENE 6.4 mph 8.0 mph 96 % 0.0 in
02:00 4.8 °F 4.2 °F 1011.7 in East 4.7 mph 4.8 mph 96 % 0.0 in
02:02 4.9 °F 4.3 °F 1011.7 in ESE 3.2 mph 6.4 mph 96 % 0.0 in
02:04 5.1 °F 4.5 °F 1011.7 in Calm   4.8 mph 96 % 0.0 in
02:08 5.2 °F 4.6 °F 1011.7 in Calm   6.4 mph 96 % 0.0 in
02:10 5.3 °F 4.7 °F 1011.7 in Calm   3.2 mph 96 % 0.0 in
02:18 5.3 °F 4.6 °F 1011.7 in Calm   1.6 mph 95 % 0.0 in
02:24 5.2 °F 4.5 °F 1011.7 in Calm   1.6 mph 95 % 0.0 in
02:26 5.1 °F 4.4 °F 1011.7 in Calm   1.6 mph 95 % 0.0 in
02:27 5.2 °F 4.5 °F 1011.7 in Calm   1.6 mph 95 % 0.0 in
02:28 5.2 °F 4.5 °F 1011.7 in Calm     95 % 0.0 in
02:32 5.2 °F 4.5 °F 1011.7 in SW 3.2 mph 4.8 mph 95 % 0.0 in
02:36 5.3 °F 4.6 °F 1011.4 in SW 3.2 mph 3.2 mph 95 % 0.0 in
02:44 5.3 °F 4.6 °F 1011.4 in SW 3.2 mph 6.4 mph 95 % 0.0 in
02:48 5.4 °F 4.7 °F 1011.4 in SW 4.7 mph 6.4 mph 95 % 0.0 in
02:51 5.4 °F 4.7 °F 1011.4 in SW 6.4 mph 6.4 mph 95 % 0.0 in
02:52 5.5 °F 4.8 °F 1011.7 in SW 4.7 mph 9.7 mph 95 % 0.0 in
02:58 5.6 °F 4.7 °F 1011.7 in SW 7.9 mph 11.3 mph 94 % 0.0 in
03:00 5.6 °F 4.7 °F 1011.7 in SSW 4.7 mph 11.3 mph 94 % 0.0 in
03:04 5.6 °F 4.7 °F 1011.7 in SW 6.4 mph 11.3 mph 94 % 0.0 in
03:10 5.6 °F 4.7 °F 1011.7 in SSW 3.2 mph 8.0 mph 94 % 0.0 in
03:14 5.6 °F 4.7 °F 1011.7 in SW 3.2 mph 6.4 mph 94 % 0.0 in
03:20 5.6 °F 4.7 °F 1011.7 in SSW 1.4 mph 6.4 mph 94 % 0.0 in
03:28 5.5 °F 4.6 °F 1011.4 in Calm   3.2 mph 94 % 0.0 in
03:30 5.4 °F 4.5 °F 1011.4 in SSW 1.4 mph 1.6 mph 94 % 0.0 in
03:32 5.4 °F 4.5 °F 1011.4 in SSW 1.4 mph 3.2 mph 94 % 0.0 in
03:34 5.4 °F 4.5 °F 1011.4 in SSW 1.4 mph 3.2 mph 94 % 0.0 in
03:36 5.4 °F 4.5 °F 1011.4 in Calm   3.2 mph 94 % 0.0 in
03:40 5.4 °F 4.5 °F 1011.1 in SW 3.2 mph 3.2 mph 94 % 0.0 in
03:50 5.3 °F 4.6 °F 1011.1 in SSW 1.4 mph 4.8 mph 95 % 0.0 in
03:56 5.4 °F 4.7 °F 1010.7 in SW 3.2 mph 6.4 mph 95 % 0.0 in
03:57 5.4 °F 4.7 °F 1010.7 in SSW 4.7 mph 4.8 mph 95 % 0.0 in
04:04 5.4 °F 4.7 °F 1010.7 in SSW 3.2 mph 4.8 mph 95 % 0.0 in
04:06 5.3 °F 4.6 °F 1010.7 in SSW 1.4 mph 3.2 mph 95 % 0.0 in
04:08 5.3 °F 4.6 °F 1010.7 in SSW 1.4 mph 3.2 mph 95 % 0.0 in
04:10 5.3 °F 4.6 °F 1010.7 in SSW 1.4 mph 4.8 mph 95 % 0.0 in
04:16 5.2 °F 4.5 °F 1010.7 in SW 1.4 mph 1.6 mph 95 % 0.0 in
04:20 5.2 °F 4.5 °F 1010.7 in SW 1.4 mph 3.2 mph 95 % 0.0 in
04:22 5.2 °F 4.6 °F 1010.4 in SSW 1.4 mph 3.2 mph 96 % 0.0 in
04:24 5.2 °F 4.6 °F 1010.7 in SSW 1.4 mph 3.2 mph 96 % 0.0 in
04:26 5.2 °F 4.5 °F 1010.4 in Calm   1.6 mph 95 % 0.0 in
04:30 5.2 °F 4.5 °F 1010.4 in Calm     95 % 0.0 in
04:32 5.2 °F 4.5 °F 1010.4 in Calm     95 % 0.0 in
04:33 5.2 °F 4.5 °F 1010.7 in Calm   1.6 mph 95 % 0.0 in
04:34 5.2 °F 4.5 °F 1010.4 in Calm   1.6 mph 95 % 0.0 in
04:36 5.2 °F 4.6 °F 1010.4 in NW 1.4 mph 1.6 mph 96 % 0.0 in
04:38 5.2 °F 4.6 °F 1010.4 in NNW 3.2 mph 3.2 mph 96 % 0.0 in
04:41 5.2 °F 4.5 °F 1010.4 in Calm   1.6 mph 95 % 0.0 in
04:42 5.2 °F 4.5 °F 1010.4 in North 1.4 mph 1.6 mph 95 % 0.0 in
04:44 5.1 °F 4.4 °F 1010.4 in North 1.4 mph 1.6 mph 95 % 0.0 in
04:48 5.1 °F 4.4 °F 1010.4 in NNE 1.4 mph 1.6 mph 95 % 0.0 in
04:51 5.0 °F 4.3 °F 1010.4 in ENE 1.4 mph 3.2 mph 95 % 0.0 in
04:52 5.1 °F 4.4 °F 1010.4 in NNE 1.4 mph 1.6 mph 95 % 0.0 in
04:54 5.0 °F 4.4 °F 1010.4 in Calm   3.2 mph 96 % 0.0 in
04:57 5.1 °F 4.5 °F 1010.4 in Calm   1.6 mph 96 % 0.0 in
05:01 5.1 °F 4.5 °F 1010.7 in East 1.4 mph 1.6 mph 96 % 0.0 in
05:07 5.1 °F 4.5 °F 1010.7 in East 1.4 mph 1.6 mph 96 % 0.0 in
05:09 5.1 °F 4.5 °F 1010.4 in Calm   1.6 mph 96 % 0.0 in
05:16 5.1 °F 4.5 °F 1010.4 in Calm     96 % 0.0 in
05:17 5.1 °F 4.5 °F 1010.4 in Calm     96 % 0.0 in
05:25 5.2 °F 4.6 °F 1010.4 in Calm     96 % 0.0 in
05:29 5.1 °F 4.5 °F 1010.0 in Calm   3.2 mph 96 % 0.0 in
05:31 5.1 °F 4.5 °F 1010.0 in Calm     96 % 0.3 in
05:33 5.0 °F 4.4 °F 1010.0 in Calm   1.6 mph 96 % 0.3 in
05:34 5.1 °F 4.5 °F 1010.0 in Calm   3.2 mph 96 % 0.0 in
05:39 4.9 °F 4.3 °F 1010.0 in Calm   1.6 mph 96 % 0.3 in
05:40 4.9 °F 4.3 °F 1010.0 in Calm   1.6 mph 96 % 0.3 in
05:46 5.0 °F 4.4 °F 1010.0 in Calm     96 % 0.3 in
05:47 5.1 °F 4.5 °F 1010.0 in Calm     96 % 0.3 in
05:51 5.1 °F 4.5 °F 1009.7 in Calm   1.6 mph 96 % 0.3 in
05:59 5.0 °F 4.4 °F 1009.7 in WNW 1.4 mph 3.2 mph 96 % 0.3 in
06:07 4.9 °F 4.3 °F 1009.4 in Calm   1.6 mph 96 % 0.3 in
06:10 4.9 °F 4.3 °F 1009.4 in WNW 1.4 mph 1.6 mph 96 % 0.3 in
06:13 5.1 °F 4.7 °F 1009.4 in Calm   1.6 mph 97 % 0.3 in
06:19 5.1 °F 4.5 °F 1009.4 in Calm     96 % 0.3 in
06:21 5.1 °F 4.5 °F 1009.4 in Calm   1.6 mph 96 % 0.3 in
06:23 5.0 °F 4.4 °F 1009.4 in Calm     96 % 0.3 in
06:29 4.8 °F 4.2 °F 1009.7 in Calm   3.2 mph 96 % 0.3 in
06:31 4.7 °F 4.1 °F 1009.4 in Calm   1.6 mph 96 % 0.0 in
06:33 4.7 °F 4.1 °F 1009.4 in Calm     96 % 0.0 in
06:37 4.7 °F 4.1 °F 1009.4 in Calm     96 % 0.0 in
06:40 4.7 °F 4.1 °F 1009.4 in Calm     96 % 0.0 in
06:41 4.7 °F 4.1 °F 1009.4 in Calm     96 % 0.0 in
06:43 4.6 °F 4.0 °F 1009.7 in Calm   1.6 mph 96 % 0.0 in
06:45 4.5 °F 3.9 °F 1009.7 in Calm     96 % 0.0 in
06:51 4.4 °F 3.8 °F 1009.7 in Calm     96 % 0.0 in
06:53 4.4 °F 3.8 °F 1009.7 in East 1.4 mph 1.6 mph 96 % 0.0 in
06:59 4.4 °F 4.0 °F 1009.7 in Calm     97 % 0.0 in
07:05 4.4 °F 3.8 °F 1009.7 in WNW 1.4 mph 1.6 mph 96 % 0.0 in
07:10 4.3 °F 3.7 °F 1009.7 in WNW 1.4 mph 1.6 mph 96 % 0.0 in
07:11 4.3 °F 3.7 °F 1009.7 in Calm   1.6 mph 96 % 0.0 in
07:15 4.3 °F 3.9 °F 1009.7 in Calm   1.6 mph 97 % 0.0 in
07:22 4.3 °F 3.9 °F 1009.7 in Calm   1.6 mph 97 % 0.0 in
07:28 4.4 °F 4.0 °F 1010.0 in Calm     97 % 0.0 in
07:30 4.4 °F 4.0 °F 1010.0 in Calm     97 % 0.0 in
07:40 4.4 °F 4.0 °F 1009.7 in Calm   1.6 mph 97 % 0.0 in
07:41 4.3 °F 3.9 °F 1010.0 in Calm     97 % 0.0 in
07:46 4.7 °F 4.3 °F 1009.7 in West 1.4 mph 4.8 mph 97 % 0.0 in
07:48 4.9 °F 4.5 °F 1009.7 in WSW 3.2 mph 6.4 mph 97 % 0.0 in
07:54 5.2 °F 4.9 °F 1009.4 in SW 4.7 mph 6.4 mph 98 % 0.0 in
08:05 5.4 °F 5.1 °F 1009.4 in SSW 1.4 mph 4.8 mph 98 % 0.0 in
08:08 5.4 °F 5.0 °F 1009.7 in Calm   1.6 mph 97 % 0.0 in
08:10 5.3 °F 4.9 °F 1009.7 in Calm   1.6 mph 97 % 0.0 in
08:11 5.4 °F 5.0 °F 1009.7 in Calm   1.6 mph 97 % 0.0 in
08:12 5.2 °F 4.8 °F 1009.7 in SSW 1.4 mph 1.6 mph 97 % 0.0 in
08:14 5.2 °F 4.8 °F 1009.7 in Calm   1.6 mph 97 % 0.0 in
08:16 5.2 °F 4.8 °F 1009.7 in Calm   1.6 mph 97 % 0.0 in
08:20 5.1 °F 4.7 °F 1009.4 in Calm   1.6 mph 97 % 0.0 in
08:28 4.7 °F 4.1 °F 1009.7 in SW 1.4 mph 1.6 mph 96 % 0.0 in
08:29 4.8 °F 4.2 °F 1009.7 in SW 1.4 mph 1.6 mph 96 % 0.0 in
08:32 4.7 °F 4.3 °F 1009.7 in SSW 1.4 mph 3.2 mph 97 % 0.0 in
08:36 4.7 °F 4.3 °F 1009.7 in Calm   1.6 mph 97 % 0.0 in
08:42 4.7 °F 4.3 °F 1009.7 in Calm   1.6 mph 97 % 0.0 in
08:44 4.7 °F 4.3 °F 1010.0 in Calm   1.6 mph 97 % 0.0 in
08:46 4.7 °F 4.3 °F 1010.0 in SSE 1.4 mph 1.6 mph 97 % 0.0 in
08:50 4.7 °F 4.3 °F 1010.0 in Calm   1.6 mph 97 % 0.0 in
08:52 4.7 °F 4.3 °F 1010.0 in Calm   3.2 mph 97 % 0.0 in
08:54 4.7 °F 4.3 °F 1010.0 in SSE 1.4 mph 3.2 mph 97 % 0.0 in
08:58 4.8 °F 4.4 °F 1010.0 in SSW 1.4 mph 3.2 mph 97 % 0.0 in
09:02 4.8 °F 4.4 °F 1010.4 in Calm   1.6 mph 97 % 0.0 in
09:04 4.8 °F 4.4 °F 1010.4 in Calm   1.6 mph 97 % 0.0 in
09:06 4.9 °F 4.5 °F 1010.4 in SE 1.4 mph 1.6 mph 97 % 0.0 in
09:08 4.9 °F 4.5 °F 1010.4 in Calm   1.6 mph 97 % 0.0 in
09:10 4.9 °F 4.5 °F 1010.4 in Calm   1.6 mph 97 % 0.0 in
09:12 4.9 °F 4.5 °F 1010.4 in Calm   1.6 mph 97 % 0.0 in
09:18 5.0 °F 4.6 °F 1010.4 in Calm   1.6 mph 97 % 0.0 in
09:22 5.1 °F 4.7 °F 1010.4 in Calm     97 % 0.0 in
09:24 5.1 °F 4.7 °F 1010.4 in Calm     97 % 0.0 in
09:26 5.1 °F 4.7 °F 1010.4 in SSW 1.4 mph 1.6 mph 97 % 0.0 in
09:28 5.2 °F 4.8 °F 1010.4 in SW 3.2 mph 3.2 mph 97 % 0.0 in
09:30 5.2 °F 4.8 °F 1010.4 in SSW 3.2 mph 3.2 mph 97 % 0.0 in
09:34 5.2 °F 4.8 °F 1010.7 in SSW 1.4 mph 4.8 mph 97 % 0.0 in
09:40 5.3 °F 4.9 °F 1010.7 in SW 3.2 mph 6.4 mph 97 % 0.0 in
09:44 5.4 °F 5.0 °F 1010.7 in SW 4.7 mph 9.7 mph 97 % 0.0 in
09:46 5.4 °F 5.0 °F 1010.7 in SSW 4.7 mph 8.0 mph 97 % 0.0 in
09:48 5.5 °F 5.2 °F 1010.7 in SSW 4.7 mph 11.3 mph 98 % 0.0 in
09:50 5.6 °F 5.3 °F 1010.7 in SW 7.9 mph 8.0 mph 98 % 0.0 in
09:54 5.7 °F 5.4 °F 1010.7 in SW 9.7 mph 12.9 mph 98 % 0.0 in
09:58 5.8 °F 5.5 °F 1010.7 in SSW 3.2 mph 11.3 mph 98 % 0.0 in
10:00 5.8 °F 5.5 °F 1010.7 in SW 7.9 mph 12.9 mph 98 % 0.0 in
10:04 5.8 °F 5.5 °F 1010.7 in SW 6.4 mph 8.0 mph 98 % 0.0 in
10:08 5.8 °F 5.4 °F 1010.7 in SSW 7.9 mph 9.7 mph 97 % 0.0 in
10:10 5.8 °F 5.4 °F 1010.7 in SSW 3.2 mph 9.7 mph 97 % 0.0 in
10:11 5.8 °F 5.5 °F 1010.7 in WSW 11.1 mph 11.3 mph 98 % 0.0 in
10:16 5.7 °F 5.3 °F 1010.7 in SW 4.7 mph 11.3 mph 97 % 0.0 in
10:17 5.8 °F 5.4 °F 1011.1 in SSW 4.7 mph 8.0 mph 97 % 0.0 in
10:18 5.7 °F 5.3 °F 1010.7 in SSW 3.2 mph 9.7 mph 97 % 0.0 in
10:20 5.7 °F 5.3 °F 1010.7 in SSW 4.7 mph 9.7 mph 97 % 0.0 in
10:22 5.8 °F 5.4 °F 1010.7 in South 4.7 mph 6.4 mph 97 % 0.0 in
10:26 5.7 °F 5.3 °F 1011.1 in SW 7.9 mph 9.7 mph 97 % 0.0 in
10:28 5.7 °F 5.3 °F 1011.1 in SW 4.7 mph 9.7 mph 97 % 0.0 in
10:29 5.8 °F 5.4 °F 1011.1 in SSW 3.2 mph 8.0 mph 97 % 0.0 in
10:30 5.7 °F 5.3 °F 1011.1 in SW 7.9 mph 9.7 mph 97 % 0.0 in
10:36 5.7 °F 5.3 °F 1011.1 in SSW 7.9 mph 9.7 mph 97 % 0.0 in
10:42 5.8 °F 5.4 °F 1011.1 in SW 6.4 mph 8.0 mph 97 % 0.0 in
10:44 5.8 °F 5.4 °F 1011.1 in South 3.2 mph 9.7 mph 97 % 0.0 in
10:48 5.8 °F 5.4 °F 1011.1 in SSW 6.4 mph 11.3 mph 97 % 0.0 in
10:50 5.8 °F 5.4 °F 1011.1 in SW 4.7 mph 9.7 mph 97 % 0.0 in
10:54 5.8 °F 5.4 °F 1011.1 in SSW 4.7 mph 9.7 mph 97 % 0.0 in
10:56 5.8 °F 5.4 °F 1011.4 in SSW 4.7 mph 8.0 mph 97 % 0.0 in
11:00 5.8 °F 5.4 °F 1011.4 in SSW 6.4 mph 9.7 mph 97 % 0.0 in
11:06 5.8 °F 5.4 °F 1011.4 in SSW 6.4 mph 9.7 mph 97 % 0.0 in
11:08 5.9 °F 5.5 °F 1011.4 in South 3.2 mph 6.4 mph 97 % 0.0 in
11:14 6.0 °F 5.6 °F 1011.4 in SSW 4.7 mph 9.7 mph 97 % 0.0 in
11:20 6.1 °F 5.8 °F 1011.4 in SSW 6.4 mph 8.0 mph 98 % 0.0 in
11:22 6.1 °F 5.8 °F 1011.4 in SSW 3.2 mph 8.0 mph 98 % 0.0 in
11:26 6.1 °F 5.7 °F 1011.4 in SSW 6.4 mph 8.0 mph 97 % 0.0 in
11:34 6.2 °F 5.9 °F 1011.4 in South 3.2 mph 6.4 mph 98 % 0.0 in
11:36 6.2 °F 5.9 °F 1011.4 in SSW 4.7 mph 8.0 mph 98 % 0.0 in
11:42 6.3 °F 6.0 °F 1011.4 in SSW 4.7 mph 9.7 mph 98 % 0.0 in
11:44 6.3 °F 6.0 °F 1011.4 in SSW 3.2 mph 8.0 mph 98 % 0.0 in
11:46 6.3 °F 6.0 °F 1011.4 in Calm   4.8 mph 98 % 0.0 in
11:48 6.3 °F 6.0 °F 1011.4 in Calm   1.6 mph 98 % 0.0 in
11:50 6.4 °F 6.1 °F 1011.4 in SSE 1.4 mph 3.2 mph 98 % 0.0 in
11:52 6.4 °F 6.1 °F 1011.4 in SSE 1.4 mph 6.4 mph 98 % 0.0 in
11:54 6.4 °F 6.1 °F 1011.7 in Calm   1.6 mph 98 % 0.0 in
11:56 6.4 °F 6.1 °F 1011.4 in SE 1.4 mph 6.4 mph 98 % 0.0 in
12:00 6.4 °F 6.1 °F 1011.4 in SSE 1.4 mph 6.4 mph 98 % 0.0 in
12:02 6.5 °F 6.2 °F 1011.4 in South 3.2 mph 4.8 mph 98 % 0.0 in
12:04 6.5 °F 6.2 °F 1011.4 in South 3.2 mph 4.8 mph 98 % 0.0 in
12:06 6.5 °F 6.2 °F 1011.4 in SSW 4.7 mph 8.0 mph 98 % 0.0 in
12:08 6.6 °F 6.3 °F 1011.4 in SW 7.9 mph 8.0 mph 98 % 0.3 in
12:12 6.6 °F 6.3 °F 1011.7 in SSW 7.9 mph 11.3 mph 98 % 0.3 in
12:16 6.6 °F 6.3 °F 1011.7 in SSW 9.7 mph 11.3 mph 98 % 0.3 in
12:18 6.6 °F 6.3 °F 1011.7 in SW 7.9 mph 11.3 mph 98 % 0.3 in
12:24 6.7 °F 6.4 °F 1011.7 in SW 11.1 mph 12.9 mph 98 % 0.5 in
12:26 6.7 °F 6.4 °F 1011.7 in SSW 6.4 mph 12.9 mph 98 % 0.5 in
12:28 6.7 °F 6.4 °F 1011.4 in South 7.9 mph 9.7 mph 98 % 0.5 in
12:30 6.7 °F 6.4 °F 1011.4 in SSW 6.4 mph 9.7 mph 98 % 0.5 in
12:32 6.7 °F 6.4 °F 1011.4 in SW 6.4 mph 11.3 mph 98 % 0.5 in
12:36 6.8 °F 6.5 °F 1011.1 in SSW 7.9 mph 8.0 mph 98 % 0.5 in
12:38 6.8 °F 6.5 °F 1011.1 in SW 9.7 mph 9.7 mph 98 % 0.5 in
12:44 6.9 °F 6.6 °F 1011.1 in SSW 9.7 mph 11.3 mph 98 % 0.5 in
12:50 7.0 °F 6.7 °F 1011.1 in South 6.4 mph 8.0 mph 98 % 0.5 in
12:52 7.1 °F 6.8 °F 1011.1 in SSW 7.9 mph 9.7 mph 98 % 0.5 in
12:58 7.1 °F 6.8 °F 1010.7 in SSW 6.4 mph 11.3 mph 98 % 0.5 in
13:00 7.2 °F 6.9 °F 1010.7 in SSW 6.4 mph 9.7 mph 98 % 0.5 in
13:06 7.1 °F 6.7 °F 1010.7 in SSW 6.4 mph 9.7 mph 97 % 0.5 in
13:08 7.1 °F 6.7 °F 1010.7 in SSW 1.4 mph 9.7 mph 97 % 0.3 in
13:10 7.2 °F 6.8 °F 1010.7 in SW 7.9 mph 9.7 mph 97 % 0.3 in
13:12 7.2 °F 6.8 °F 1010.7 in SSW 7.9 mph 8.0 mph 97 % 0.3 in
13:16 7.2 °F 6.8 °F 1010.7 in SW 7.9 mph 11.3 mph 97 % 0.3 in
13:18 7.2 °F 6.8 °F 1010.7 in SW 9.7 mph 12.9 mph 97 % 0.3 in
13:20 7.3 °F 6.9 °F 1010.7 in SSW 6.4 mph 11.3 mph 97 % 0.3 in
13:24 7.3 °F 6.9 °F 1010.7 in SSW 9.7 mph 12.9 mph 97 % 0.0 in
13:26 7.4 °F 7.0 °F 1010.4 in SSW 4.7 mph 11.3 mph 97 % 0.0 in
13:28 7.4 °F 7.0 °F 1010.4 in South 3.2 mph 11.3 mph 97 % 0.0 in
13:34 7.5 °F 7.1 °F 1010.4 in South 11.1 mph 16.1 mph 97 % 0.3 in
13:36 7.5 °F 7.1 °F 1010.4 in SSW 7.9 mph 14.5 mph 97 % 0.3 in
13:40 7.6 °F 7.0 °F 1010.4 in SSW 9.7 mph 17.7 mph 96 % 0.3 in
13:42 7.6 °F 7.2 °F 1010.4 in SSW 11.1 mph 12.9 mph 97 % 0.3 in
13:48 7.7 °F 7.1 °F 1010.4 in SSW 11.1 mph 12.9 mph 96 % 0.3 in
13:54 7.8 °F 7.0 °F 1010.4 in SW 13.0 mph 17.7 mph 95 % 0.3 in
13:56 7.8 °F 7.2 °F 1010.4 in South 16.3 mph 17.7 mph 96 % 0.3 in
14:00 7.8 °F 6.9 °F 1010.4 in SSW 11.1 mph 24.1 mph 94 % 0.3 in
14:02 7.8 °F 6.9 °F 1010.4 in SSW 11.1 mph 19.3 mph 94 % 0.3 in
14:04 7.8 °F 6.9 °F 1010.4 in SSW 14.3 mph 17.7 mph 94 % 0.3 in
14:06 7.7 °F 6.6 °F 1010.4 in SSW 11.1 mph 24.1 mph 93 % 0.3 in
14:10 7.7 °F 6.5 °F 1010.0 in SW 13.0 mph 20.9 mph 92 % 0.3 in
14:14 7.7 °F 6.5 °F 1010.4 in SW 6.4 mph 17.7 mph 92 % 0.3 in
14:18 7.7 °F 6.3 °F 1010.4 in SW 9.7 mph 22.5 mph 91 % 0.3 in
14:22 7.7 °F 6.3 °F 1010.0 in SSW 14.3 mph 19.3 mph 91 % 0.3 in
14:24 7.6 °F 6.2 °F 1010.0 in SW 14.3 mph 20.9 mph 91 % 0.3 in
14:26 7.6 °F 6.1 °F 1010.0 in SW 19.5 mph 25.7 mph 90 % 0.3 in
14:28 7.5 °F 6.0 °F 1010.0 in SW 19.5 mph 25.7 mph 90 % 0.3 in
14:37 7.4 °F 6.0 °F 1010.0 in South 11.1 mph 20.9 mph 91 % 0.0 in
14:40 7.3 °F 5.9 °F 1010.0 in SW 9.7 mph 17.7 mph 91 % 0.0 in
14:44 7.2 °F 5.7 °F 1010.0 in SSW 17.7 mph 19.3 mph 90 % 0.0 in
14:49 7.2 °F 5.8 °F 1010.0 in SSW 7.9 mph 19.3 mph 91 % 0.0 in
14:52 7.2 °F 5.8 °F 1010.0 in SSW 13.0 mph 19.3 mph 91 % 0.0 in
14:54 7.2 °F 5.8 °F 1010.0 in SW 9.7 mph 17.7 mph 91 % 0.0 in
14:56 7.2 °F 5.8 °F 1010.0 in South 7.9 mph 17.7 mph 91 % 0.0 in
14:58 7.2 °F 5.8 °F 1010.0 in SW 9.7 mph 17.7 mph 91 % 0.0 in
15:00 7.2 °F 5.8 °F 1010.0 in SSE 6.4 mph 14.5 mph 91 % 0.0 in
15:06 7.1 °F 5.7 °F 1010.0 in SSW 7.9 mph 14.5 mph 91 % 0.0 in
15:08 7.2 °F 5.8 °F 1010.0 in SSW 4.7 mph 11.3 mph 91 % 0.0 in
15:10 7.2 °F 5.8 °F 1010.0 in SSW 6.4 mph 12.9 mph 91 % 0.0 in
15:12 7.2 °F 5.8 °F 1010.0 in SSW 6.4 mph 11.3 mph 91 % 0.0 in
15:20 7.1 °F 5.7 °F 1010.0 in South 4.7 mph 16.1 mph 91 % 0.0 in
15:23 7.1 °F 5.7 °F 1010.0 in SSW 4.7 mph 9.7 mph 91 % 0.0 in
15:26 7.1 °F 5.7 °F 1010.0 in SW 13.0 mph 13.0 mph 91 % 0.0 in
15:30 7.1 °F 5.9 °F 1010.0 in SSE 4.7 mph 9.7 mph 92 % 0.0 in
15:32 7.1 °F 5.9 °F 1010.0 in SSW 6.4 mph 6.4 mph 92 % 0.0 in
15:36 7.1 °F 5.9 °F 1010.0 in SSE 3.2 mph 12.9 mph 92 % 0.0 in
15:43 7.0 °F 5.8 °F 1010.0 in SSE 3.2 mph 9.7 mph 92 % 0.3 in
15:47 7.0 °F 5.8 °F 1010.0 in SSW 1.4 mph 6.4 mph 92 % 0.3 in
15:53 7.0 °F 5.8 °F 1010.0 in South 1.4 mph 9.7 mph 92 % 0.3 in
15:54 7.0 °F 5.8 °F 1010.0 in SSE 3.2 mph 9.7 mph 92 % 0.3 in
15:55 6.9 °F 5.8 °F 1010.0 in South 4.7 mph 6.4 mph 93 % 0.3 in
16:01 6.9 °F 5.8 °F 1010.0 in SSE 1.4 mph 9.7 mph 93 % 0.3 in
16:05 6.9 °F 5.8 °F 1010.0 in SSE 1.4 mph 11.3 mph 93 % 0.3 in
16:11 6.9 °F 5.8 °F 1010.0 in SE 3.2 mph 3.2 mph 93 % 0.5 in
16:13 6.9 °F 6.0 °F 1010.0 in South 1.4 mph 4.8 mph 94 % 0.5 in
16:19 6.8 °F 5.9 °F 1010.0 in South 1.4 mph 4.8 mph 94 % 0.5 in
16:23 6.8 °F 5.9 °F 1010.0 in SSE 1.4 mph 6.4 mph 94 % 0.5 in
16:25 6.8 °F 5.9 °F 1010.4 in SW 4.7 mph 6.4 mph 94 % 0.5 in
16:31 6.8 °F 5.9 °F 1010.4 in SW 1.4 mph 4.8 mph 94 % 0.8 in
16:35 6.8 °F 5.9 °F 1010.4 in SSE 3.2 mph 6.4 mph 94 % 0.8 in
16:37 6.8 °F 5.9 °F 1010.4 in SSE 3.2 mph 9.7 mph 94 % 1.0 in
16:39 6.8 °F 5.9 °F 1010.4 in SSE 4.7 mph 8.0 mph 94 % 0.8 in
16:47 6.8 °F 6.1 °F 1010.4 in South 4.7 mph 6.4 mph 95 % 1.0 in
16:49 6.8 °F 6.1 °F 1010.4 in SSW 4.7 mph 8.0 mph 95 % 1.3 in
16:51 6.8 °F 6.1 °F 1010.4 in SSE 4.7 mph 9.7 mph 95 % 1.5 in
16:53 6.7 °F 6.0 °F 1010.4 in SSW 3.2 mph 14.5 mph 95 % 1.5 in
16:59 6.7 °F 6.0 °F 1010.4 in SSW 4.7 mph 8.0 mph 95 % 1.5 in
17:01 6.7 °F 6.0 °F 1010.4 in SSW 4.7 mph 8.0 mph 95 % 1.5 in
17:05 6.7 °F 6.0 °F 1010.4 in SSE 1.4 mph 8.0 mph 95 % 1.8 in
17:07 6.7 °F 6.0 °F 1010.4 in South 1.4 mph 6.4 mph 95 % 1.8 in
17:11 6.7 °F 6.0 °F 1010.4 in SW 3.2 mph 6.4 mph 95 % 1.8 in
17:13 6.7 °F 6.0 °F 1010.4 in SSE 1.4 mph 8.0 mph 95 % 1.8 in
17:23 6.6 °F 5.9 °F 1010.7 in SSE 4.7 mph 6.4 mph 95 % 1.8 in
17:25 6.6 °F 5.9 °F 1010.4 in SE 3.2 mph 6.4 mph 95 % 1.8 in
17:29 6.6 °F 6.0 °F 1010.7 in Calm   4.8 mph 96 % 1.5 in
17:39 6.6 °F 6.0 °F 1010.7 in SSE 3.2 mph 3.2 mph 96 % 1.5 in
17:47 6.6 °F 6.0 °F 1010.7 in SSE 3.2 mph 6.4 mph 96 % 1.3 in
17:48 6.6 °F 6.0 °F 1010.7 in Calm   6.4 mph 96 % 1.5 in
17:49 6.6 °F 6.0 °F 1010.7 in SSW 1.4 mph 4.8 mph 96 % 1.0 in
17:53 6.7 °F 6.1 °F 1010.7 in Calm   3.2 mph 96 % 0.8 in
17:55 6.6 °F 6.0 °F 1010.7 in SSW 4.7 mph 6.4 mph 96 % 0.8 in
17:59 6.6 °F 6.0 °F 1010.7 in SSW 1.4 mph 4.8 mph 96 % 0.5 in
18:01 6.7 °F 6.1 °F 1010.7 in South 7.9 mph 8.0 mph 96 % 0.5 in
18:11 6.7 °F 6.1 °F 1010.7 in SSW 1.4 mph 4.8 mph 96 % 0.3 in
18:12 6.7 °F 6.1 °F 1010.7 in SSE 1.4 mph 6.4 mph 96 % 0.5 in
18:17 6.7 °F 6.1 °F 1010.7 in South 7.9 mph 9.7 mph 96 % 0.0 in
18:24 6.7 °F 6.1 °F 1010.7 in South 3.2 mph 6.4 mph 96 % 0.0 in
18:27 6.7 °F 6.1 °F 1010.7 in SSE 1.4 mph 9.7 mph 96 % 0.0 in
18:29 6.7 °F 6.1 °F 1010.7 in SSW 1.4 mph 6.4 mph 96 % 0.0 in
18:49 6.7 °F 6.1 °F 1011.1 in SSE 1.4 mph 9.7 mph 96 % 0.0 in
18:55 6.6 °F 6.0 °F 1011.1 in SSE 1.4 mph 6.4 mph 96 % 0.0 in
19:07 6.6 °F 6.0 °F 1011.1 in SE 3.2 mph 6.4 mph 96 % 0.3 in
19:13 6.6 °F 6.0 °F 1011.1 in South 3.2 mph 6.4 mph 96 % 0.3 in
19:19 6.6 °F 6.0 °F 1011.1 in South 3.2 mph 4.8 mph 96 % 0.3 in
19:25 6.6 °F 6.0 °F 1011.1 in SSW 6.4 mph 6.4 mph 96 % 0.3 in
19:27 6.6 °F 6.0 °F 1011.1 in South 1.4 mph 6.4 mph 96 % 0.3 in
19:31 6.6 °F 6.0 °F 1011.1 in SSW 1.4 mph 6.4 mph 96 % 0.3 in
19:33 6.6 °F 6.0 °F 1010.7 in South 1.4 mph 3.2 mph 96 % 0.3 in
19:42 6.6 °F 6.0 °F 1011.1 in SSE 4.7 mph 4.8 mph 96 % 0.3 in
19:43 6.6 °F 6.0 °F 1010.7 in Calm   6.4 mph 96 % 0.3 in
19:47 6.6 °F 6.0 °F 1010.7 in SSW 1.4 mph 6.4 mph 96 % 0.3 in
19:54 6.6 °F 6.0 °F 1010.7 in Calm   4.8 mph 96 % 0.3 in
19:55 6.6 °F 6.0 °F 1010.7 in SSW 1.4 mph 3.2 mph 96 % 0.3 in
20:01 6.6 °F 6.0 °F 1011.1 in Calm   3.2 mph 96 % 0.0 in
20:12 6.6 °F 6.0 °F 1011.1 in SSW 1.4 mph 3.2 mph 96 % 0.0 in
20:17 6.6 °F 6.0 °F 1011.1 in SSW 1.4 mph 3.2 mph 96 % 0.0 in
20:18 6.6 °F 6.0 °F 1011.1 in SSW 1.4 mph 4.8 mph 96 % 0.0 in
Meteo18
Compliments of Weather Underground - 4 mb

Script developed by  Jim McMurry - jmcmurry@mwt.net Adapted for the template by  Wim van der Kuil - Leuven-Template.eu

You find our weather info also at:

European Weather Network

Weather Underground

Equipment we use:

Weather-station
Davis Vue

Weather-program
Meteobridge

Weather-server
Raspberry PI 2 B+

Provider
1 and 1

Davis Vue

Meteobridge

Raspberry PI 2 B+

1 and 1